createdAt,value
2018-04-12T00:00:10.892Z,100981.30
2018-04-12T00:02:40.350Z,100980.05
2018-04-12T00:05:09.313Z,100988.86
2018-04-12T00:07:38.428Z,100987.67
2018-04-12T00:10:07.609Z,100992.16
2018-04-12T00:12:37.288Z,101000.00
2018-04-12T00:15:06.614Z,101001.83
2018-04-12T00:17:35.768Z,101008.47
2018-04-12T00:20:05.269Z,101002.98
2018-04-12T00:22:34.327Z,100992.41
2018-04-12T00:25:03.784Z,100998.52
2018-04-12T00:27:33.084Z,100991.51
2018-04-12T00:30:02.329Z,100995.02
2018-04-12T00:32:31.638Z,100995.19
2018-04-12T00:35:00.860Z,100986.53
2018-04-12T00:37:30.398Z,100991.23
2018-04-12T00:39:59.513Z,100987.73
2018-04-12T00:42:28.644Z,100984.03
2018-04-12T00:44:57.817Z,100986.02
2018-04-12T00:47:27.099Z,100955.58
2018-04-12T00:49:56.444Z,100984.52
2018-04-12T00:52:25.595Z,100992.97
2018-04-12T00:54:54.722Z,100986.22
2018-04-12T00:57:23.829Z,100994.10
2018-04-12T00:59:53.220Z,100992.47
2018-04-12T01:02:22.297Z,100997.08
2018-04-12T01:04:51.540Z,100996.01
2018-04-12T01:07:20.796Z,100987.97
2018-04-12T01:09:49.896Z,100988.02
2018-04-12T01:12:18.972Z,100991.34
2018-04-12T01:14:48.113Z,100989.48
2018-04-12T01:17:17.217Z,100991.23
2018-04-12T01:19:46.482Z,100987.93
2018-04-12T01:22:15.656Z,100991.56
2018-04-12T01:24:44.659Z,100989.91
2018-04-12T01:27:13.698Z,100990.59
2018-04-12T01:29:42.807Z,100983.67
2018-04-12T01:32:12.233Z,100981.45
2018-04-12T01:34:41.590Z,100990.74
2018-04-12T01:37:10.621Z,100983.94
2018-04-12T01:39:39.774Z,100989.50
2018-04-12T01:42:08.818Z,100986.19
2018-04-12T01:44:38.024Z,100985.53
2018-04-12T01:47:07.105Z,100987.45
2018-04-12T01:49:36.890Z,100981.12
2018-04-12T01:52:06.080Z,100984.27
2018-04-12T01:54:35.337Z,100983.58
2018-04-12T01:57:04.478Z,100983.96
2018-04-12T01:59:33.500Z,100987.13
2018-04-12T02:02:02.925Z,100990.18
2018-04-12T02:04:32.064Z,100990.58
2018-04-12T02:07:01.377Z,100995.98
2018-04-12T02:09:30.401Z,100999.72
2018-04-12T02:11:59.700Z,101007.61
2018-04-12T02:14:28.787Z,101003.71
2018-04-12T02:16:58.150Z,101005.19
2018-04-12T02:19:27.489Z,101012.99
2018-04-12T02:21:56.797Z,101008.70
2018-04-12T02:24:26.072Z,101005.92
2018-04-12T02:26:55.238Z,101007.48
2018-04-12T02:29:24.349Z,101007.25
2018-04-12T02:31:53.593Z,101008.19
2018-04-12T02:34:22.919Z,101011.75
2018-04-12T02:36:52.047Z,101011.92
2018-04-12T02:39:21.364Z,101013.11
2018-04-12T02:41:50.516Z,101004.02
2018-04-12T02:44:19.659Z,101004.23
2018-04-12T02:46:48.681Z,101003.34
2018-04-12T02:49:17.832Z,101010.95
2018-04-12T02:51:47.022Z,101016.82
2018-04-12T02:54:16.273Z,101016.22
2018-04-12T02:56:45.652Z,101017.66
2018-04-12T02:59:14.661Z,101011.70
2018-04-12T03:01:43.958Z,101011.30
2018-04-12T03:04:13.074Z,101014.34
2018-04-12T03:06:42.185Z,101013.00
2018-04-12T03:09:11.318Z,101013.09
2018-04-12T03:11:40.396Z,101020.31
2018-04-12T03:14:09.569Z,101030.04
2018-04-12T03:16:38.749Z,101028.67
2018-04-12T03:19:07.861Z,101031.27
2018-04-12T03:21:37.070Z,101044.94
2018-04-12T03:24:06.184Z,101056.53
2018-04-12T03:26:35.762Z,101055.31
2018-04-12T03:29:05.077Z,101061.56
2018-04-12T03:31:34.147Z,101060.37
2018-04-12T03:34:03.265Z,101049.47
2018-04-12T03:36:32.384Z,101053.69
2018-04-12T03:39:01.602Z,101054.54
2018-04-12T03:41:30.938Z,101054.88
2018-04-12T03:44:00.242Z,101058.62
2018-04-12T03:46:29.594Z,101054.13
2018-04-12T03:48:59.924Z,101055.73
2018-04-12T03:51:29.059Z,101059.00
2018-04-12T03:53:58.260Z,101066.06
2018-04-12T03:56:27.347Z,101064.37
2018-04-12T03:58:56.533Z,101059.61
2018-04-12T04:01:25.794Z,101059.34
2018-04-12T04:03:54.826Z,101061.27
2018-04-12T04:06:23.880Z,101067.00
2018-04-12T04:08:53.044Z,101059.75
2018-04-12T04:11:22.036Z,101066.91
2018-04-12T04:13:51.414Z,101061.94
2018-04-12T04:16:31.835Z,101068.55
2018-04-12T04:19:12.006Z,101068.91
2018-04-12T04:21:41.024Z,101075.54
2018-04-12T04:24:10.097Z,101082.70
2018-04-12T04:26:39.308Z,101077.83
2018-04-12T04:29:08.455Z,101082.20
2018-04-12T04:31:37.540Z,101077.81
2018-04-12T04:34:06.995Z,101094.94
2018-04-12T04:36:36.107Z,101091.30
2018-04-12T04:39:05.147Z,101099.31
2018-04-12T04:41:34.454Z,101103.06
2018-04-12T04:44:03.582Z,101105.95
2018-04-12T04:46:32.821Z,101100.56
2018-04-12T04:49:02.049Z,101097.44
2018-04-12T04:51:31.149Z,101096.33
2018-04-12T04:54:00.268Z,101102.48
2018-04-12T04:56:29.489Z,101104.64
2018-04-12T04:58:58.644Z,101110.86
2018-04-12T05:01:27.849Z,101117.25
2018-04-12T05:03:57.005Z,101123.22
2018-04-12T05:06:26.420Z,101120.05
2018-04-12T05:08:55.685Z,101122.88
2018-04-12T05:11:25.072Z,101127.36
2018-04-12T05:13:54.105Z,101142.86
2018-04-12T05:16:23.273Z,101133.52
2018-04-12T05:18:52.326Z,101142.72
2018-04-12T05:21:21.552Z,101140.11
2018-04-12T05:23:50.745Z,101140.50
2018-04-12T05:26:19.854Z,101114.45
2018-04-12T05:28:48.799Z,101136.00
2018-04-12T05:31:17.950Z,101143.53
2018-04-12T05:33:47.047Z,101145.87
2018-04-12T05:36:17.047Z,101154.25
2018-04-12T05:38:46.524Z,101150.66
2018-04-12T05:41:15.792Z,101156.09
2018-04-12T05:43:44.901Z,101159.42
2018-04-12T05:46:14.305Z,101163.41
2018-04-12T05:48:43.378Z,101149.23
2018-04-12T05:51:12.523Z,101160.93
2018-04-12T05:53:41.624Z,101161.55
2018-04-12T05:56:10.899Z,101153.48
2018-04-12T05:58:40.138Z,101149.27
2018-04-12T06:01:09.333Z,101143.73
2018-04-12T06:03:38.414Z,101150.52
2018-04-12T06:06:07.676Z,101191.96
2018-04-12T06:08:36.832Z,101180.72
2018-04-12T06:11:05.930Z,101179.22
2018-04-12T06:13:35.074Z,101184.14
2018-04-12T06:16:04.229Z,101177.58
2018-04-12T06:18:33.260Z,101202.33
2018-04-12T06:21:02.616Z,101191.12
2018-04-12T06:23:43.557Z,101193.66
2018-04-12T06:26:18.524Z,101180.32
2018-04-12T06:28:48.208Z,101180.77
2018-04-12T06:31:17.564Z,101209.43
2018-04-12T06:33:46.742Z,101183.36
2018-04-12T06:36:15.894Z,101189.30
2018-04-12T06:38:45.132Z,101190.78
2018-04-12T06:41:14.280Z,101186.84
2018-04-12T06:43:43.456Z,101215.91
2018-04-12T06:46:12.645Z,101163.22
2018-04-12T06:48:41.881Z,101188.22
2018-04-12T06:51:11.497Z,101193.55
2018-04-12T06:53:40.689Z,101198.63
2018-04-12T06:56:09.941Z,101186.45
2018-04-12T06:58:39.195Z,101199.63
2018-04-12T07:01:10.073Z,101200.06
2018-04-12T07:03:41.828Z,101207.94
2018-04-12T07:06:12.301Z,101199.59
2018-04-12T07:08:41.451Z,101200.59
2018-04-12T07:11:10.681Z,101197.71
2018-04-12T07:13:39.840Z,101188.09
2018-04-12T07:16:10.582Z,101203.72
2018-04-12T07:18:40.059Z,101204.25
2018-04-12T07:21:09.420Z,101214.42
2018-04-12T07:23:38.616Z,101206.37
2018-04-12T07:26:07.703Z,101205.41
2018-04-12T07:28:37.191Z,101189.56
2018-04-12T07:31:06.632Z,101191.09
2018-04-12T07:33:35.855Z,101206.42
2018-04-12T07:36:04.945Z,101211.67
2018-04-12T07:38:34.253Z,101191.31
2018-04-12T07:41:03.644Z,101195.78
2018-04-12T07:43:32.806Z,101203.19
2018-04-12T07:46:02.005Z,101225.81
2018-04-12T07:48:31.197Z,101171.88
2018-04-12T07:51:00.690Z,101221.22
2018-04-12T07:53:30.161Z,101209.53
2018-04-12T07:56:10.305Z,101224.70
2018-04-12T07:58:45.519Z,101210.65
2018-04-12T08:01:14.713Z,101221.40
2018-04-12T08:03:43.860Z,101223.09
2018-04-12T08:06:13.100Z,101223.59
2018-04-12T08:08:42.252Z,101215.55
2018-04-12T08:11:11.750Z,101222.84
2018-04-12T08:13:41.044Z,101209.84
2018-04-12T08:16:10.236Z,101227.98
2018-04-12T08:18:39.260Z,101196.48
2018-04-12T08:21:08.542Z,101229.72
2018-04-12T08:23:37.849Z,101231.19
2018-04-12T08:26:07.245Z,101232.45
2018-04-12T08:28:36.549Z,101206.22
2018-04-12T08:31:06.283Z,101222.95
2018-04-12T08:33:35.562Z,101224.61
2018-04-12T08:36:04.752Z,101223.14
2018-04-12T08:38:33.728Z,101231.44
2018-04-12T08:41:02.872Z,101219.08
2018-04-12T08:43:31.908Z,101228.91
2018-04-12T08:46:00.921Z,101232.55
2018-04-12T08:48:30.141Z,101213.98
2018-04-12T08:50:59.390Z,101232.73
2018-04-12T08:53:28.534Z,101225.96
2018-04-12T08:55:57.860Z,101220.42
2018-04-12T08:58:27.128Z,101229.89
2018-04-12T09:00:56.353Z,101229.14
2018-04-12T09:03:25.337Z,101221.66
2018-04-12T09:05:54.628Z,101216.12
2018-04-12T09:08:23.790Z,101220.64
2018-04-12T09:10:52.856Z,101218.99
2018-04-12T09:13:21.917Z,101216.13
2018-04-12T09:15:51.167Z,101205.70
2018-04-12T09:18:20.429Z,101223.37
2018-04-12T09:20:49.512Z,101213.84
2018-04-12T09:23:18.806Z,101210.05
2018-04-12T09:25:48.089Z,101208.28
2018-04-12T09:28:17.127Z,101212.09
2018-04-12T09:30:46.365Z,101230.63
2018-04-12T09:33:15.882Z,101239.91
2018-04-12T09:35:45.783Z,101220.73
2018-04-12T09:38:14.930Z,101223.36
2018-04-12T09:40:44.047Z,101227.95
2018-04-12T09:43:13.331Z,101234.95
2018-04-12T09:45:42.848Z,101219.74
2018-04-12T09:48:12.001Z,101222.67
2018-04-12T09:50:41.324Z,101218.83
2018-04-12T09:53:10.364Z,101215.67
2018-04-12T09:55:39.457Z,101217.59
2018-04-12T09:58:08.880Z,101224.72
2018-04-12T10:00:38.314Z,101212.92
2018-04-12T10:03:13.193Z,101215.29
2018-04-12T10:05:48.056Z,101210.23
2018-04-12T10:08:22.946Z,101223.07
2018-04-12T10:10:52.156Z,101217.02
2018-04-12T10:13:21.520Z,101203.61
2018-04-12T10:15:50.677Z,101207.99
2018-04-12T10:18:19.826Z,101207.34
2018-04-12T10:20:48.991Z,101202.27
2018-04-12T10:23:18.114Z,101194.72
2018-04-12T10:25:47.492Z,101201.62
2018-04-12T10:28:16.715Z,101198.93
2018-04-12T10:30:45.897Z,101197.53
2018-04-12T10:33:15.065Z,101211.25
2018-04-12T10:35:44.161Z,101200.95
2018-04-12T10:38:13.504Z,101215.16
2018-04-12T10:40:42.713Z,101194.98
2018-04-12T10:43:12.580Z,101191.47
2018-04-12T10:45:41.837Z,101182.70
2018-04-12T10:48:11.144Z,101194.88
2018-04-12T10:50:40.537Z,101183.75
2018-04-12T10:53:09.799Z,101190.34
2018-04-12T10:55:39.108Z,101177.98
2018-04-12T10:58:08.327Z,101199.87
2018-04-12T11:00:37.496Z,101188.98
2018-04-12T11:03:06.664Z,101196.11
2018-04-12T11:05:35.769Z,101187.30
2018-04-12T11:08:04.840Z,101187.93
2018-04-12T11:10:34.131Z,101191.12
2018-04-12T11:13:03.260Z,101199.32
2018-04-12T11:15:32.380Z,101186.48
2018-04-12T11:18:01.784Z,101180.03
2018-04-12T11:20:32.040Z,101175.97
2018-04-12T11:23:01.726Z,101173.15
2018-04-12T11:25:31.020Z,101176.77
2018-04-12T11:28:00.112Z,101174.56
2018-04-12T11:30:29.220Z,101180.78
2018-04-12T11:32:58.455Z,101164.14
2018-04-12T11:35:27.634Z,101163.64
2018-04-12T11:37:56.834Z,101174.95
2018-04-12T11:40:25.923Z,101166.16
2018-04-12T11:42:55.249Z,101167.11
2018-04-12T11:45:24.500Z,101147.02
2018-04-12T11:47:53.572Z,101162.57
2018-04-12T11:50:22.785Z,101154.38
2018-04-12T11:52:52.112Z,101178.33
2018-04-12T11:55:21.283Z,101171.94
2018-04-12T11:57:50.527Z,101137.77
2018-04-12T12:00:19.892Z,101156.29
2018-04-12T12:02:49.148Z,101167.52
2018-04-12T12:05:18.526Z,101147.71
2018-04-12T12:07:47.540Z,101145.34
2018-04-12T12:10:17.133Z,101153.58
2018-04-12T12:12:46.412Z,101125.02
2018-04-12T12:15:15.685Z,101130.56
2018-04-12T12:17:45.262Z,101136.47
2018-04-12T12:20:15.197Z,101134.48
2018-04-12T12:22:44.553Z,101117.41
2018-04-12T12:25:13.734Z,101138.44
2018-04-12T12:27:42.895Z,101134.38
2018-04-12T12:30:12.356Z,101122.94
2018-04-12T12:32:41.353Z,101156.78
2018-04-12T12:35:10.510Z,101133.21
2018-04-12T12:37:39.749Z,101123.53
2018-04-12T12:40:08.857Z,101115.70
2018-04-12T12:42:38.142Z,101122.39
2018-04-12T12:45:07.397Z,101127.30
2018-04-12T12:47:36.717Z,101122.80
2018-04-12T12:50:06.239Z,101124.80
2018-04-12T12:52:35.319Z,101115.30
2018-04-12T12:55:04.533Z,101113.76
2018-04-12T12:57:33.687Z,101107.55
2018-04-12T13:00:02.941Z,101116.72
2018-04-12T13:02:32.396Z,101096.81
2018-04-12T13:05:01.798Z,101102.02
2018-04-12T13:07:30.924Z,101104.34
2018-04-12T13:10:00.292Z,101095.19
2018-04-12T13:12:29.600Z,101091.27
2018-04-12T13:14:59.314Z,101102.61
2018-04-12T13:17:28.422Z,101104.23
2018-04-12T13:19:57.632Z,101094.19
2018-04-12T13:22:26.700Z,101087.98
2018-04-12T13:24:55.861Z,101102.19
2018-04-12T13:27:25.151Z,101106.45
2018-04-12T13:29:54.192Z,101096.73
2018-04-12T13:32:23.216Z,101100.48
2018-04-12T13:34:52.386Z,101099.23
2018-04-12T13:37:21.516Z,101081.11
2018-04-12T13:39:50.797Z,101094.34
2018-04-12T13:42:20.045Z,101078.83
2018-04-12T13:44:49.185Z,101090.55
2018-04-12T13:47:18.540Z,101086.87
2018-04-12T13:49:47.912Z,101097.96
2018-04-12T13:52:17.396Z,101088.30
2018-04-12T13:54:46.350Z,101103.52
2018-04-12T13:57:15.897Z,101092.98
2018-04-12T13:59:45.251Z,101087.48
2018-04-12T14:02:14.437Z,101074.08
2018-04-12T14:04:43.682Z,101090.02
2018-04-12T14:07:12.757Z,101085.33
2018-04-12T14:09:41.883Z,101079.80
2018-04-12T14:12:10.929Z,101076.98
2018-04-12T14:14:40.031Z,101085.75
2018-04-12T14:17:09.331Z,101084.37
2018-04-12T14:19:38.426Z,101105.23
2018-04-12T14:22:07.619Z,101106.72
2018-04-12T14:24:36.925Z,101084.05
2018-04-12T14:27:06.164Z,101114.86
2018-04-12T14:29:35.426Z,101079.24
2018-04-12T14:32:04.624Z,101093.69
2018-04-12T14:34:33.772Z,101076.47
2018-04-12T14:37:03.136Z,101073.93
2018-04-12T14:39:32.417Z,101091.73
2018-04-12T14:42:01.537Z,101103.60
2018-04-12T14:44:30.823Z,101091.73
2018-04-12T14:47:00.020Z,101096.25
2018-04-12T14:49:29.525Z,101093.73
2018-04-12T14:51:58.769Z,101090.86
2018-04-12T14:54:27.830Z,101086.16
2018-04-12T14:56:56.870Z,101097.30
2018-04-12T14:59:26.018Z,101091.23
2018-04-12T15:01:55.311Z,101115.13
2018-04-12T15:04:24.344Z,101106.73
2018-04-12T15:06:53.605Z,101106.32
2018-04-12T15:09:22.653Z,101104.44
2018-04-12T15:11:51.820Z,101106.72
2018-04-12T15:14:20.967Z,101121.61
2018-04-12T15:16:49.996Z,101106.02
2018-04-12T15:19:18.876Z,101125.03
2018-04-12T15:21:48.072Z,101110.80
2018-04-12T15:24:17.118Z,101108.36
2018-04-12T15:26:45.999Z,101111.47
2018-04-12T15:29:15.265Z,101120.17
2018-04-12T15:31:44.300Z,101108.05
2018-04-12T15:34:13.384Z,101120.92
2018-04-12T15:36:42.696Z,101135.63
2018-04-12T15:39:11.815Z,101126.70
2018-04-12T15:41:40.762Z,101124.95
2018-04-12T15:44:09.904Z,101117.85
2018-04-12T15:46:38.801Z,101136.41
2018-04-12T15:49:08.028Z,101123.09
2018-04-12T15:51:37.166Z,101136.91
2018-04-12T15:54:06.323Z,101125.56
2018-04-12T15:56:35.200Z,101121.13
2018-04-12T15:59:04.488Z,101137.73
2018-04-12T16:01:33.384Z,101135.75
2018-04-12T16:04:02.442Z,101136.20
2018-04-12T16:06:31.591Z,101136.99
2018-04-12T16:09:00.521Z,101122.70
2018-04-12T16:11:29.466Z,101127.67
2018-04-12T16:13:58.336Z,101143.92
2018-04-12T16:16:27.180Z,101141.43
2018-04-12T16:18:56.085Z,101143.09
2018-04-12T16:21:25.078Z,101140.28
2018-04-12T16:23:54.324Z,101120.58
2018-04-12T16:26:23.393Z,101139.19
2018-04-12T16:28:52.285Z,101183.90
2018-04-12T16:31:21.606Z,101141.28
2018-04-12T16:33:50.481Z,101144.57
2018-04-12T16:36:19.284Z,101150.29
2018-04-12T16:38:48.359Z,101137.38
2018-04-12T16:41:17.352Z,101160.18
2018-04-12T16:43:46.148Z,101169.27
2018-04-12T16:46:15.033Z,101171.41
2018-04-12T16:48:44.288Z,101162.39
2018-04-12T16:51:13.684Z,101173.02
2018-04-12T16:53:42.493Z,101177.33
2018-04-12T16:56:11.837Z,101208.16
2018-04-12T16:58:40.734Z,101167.85
2018-04-12T17:01:09.659Z,101193.28
2018-04-12T17:03:38.679Z,101195.78
2018-04-12T17:06:07.802Z,101204.94
2018-04-12T17:08:36.765Z,101201.08
2018-04-12T17:11:05.769Z,101183.32
2018-04-12T17:13:34.604Z,101218.97
2018-04-12T17:16:03.906Z,101233.06
2018-04-12T17:18:32.942Z,101216.71
2018-04-12T17:21:01.893Z,101220.73
2018-04-12T17:23:30.826Z,101216.22
2018-04-12T17:25:59.836Z,101235.12
2018-04-12T17:28:28.776Z,101227.85
2018-04-12T17:30:57.789Z,101225.50
2018-04-12T17:33:26.590Z,101219.53
2018-04-12T17:35:55.425Z,101209.73
2018-04-12T17:38:24.462Z,101246.95
2018-04-12T17:40:53.529Z,101244.01
2018-04-12T17:43:22.456Z,101239.53
2018-04-12T17:45:51.516Z,101255.38
2018-04-12T17:48:20.385Z,101257.55
2018-04-12T17:50:49.272Z,101267.52
2018-04-12T17:53:18.130Z,101233.52
2018-04-12T17:55:47.085Z,101245.45
2018-04-12T17:58:16.012Z,101243.69
2018-04-12T18:00:44.914Z,101273.63
2018-04-12T18:03:13.841Z,101251.22
2018-04-12T18:05:42.750Z,101271.63
2018-04-12T18:08:11.772Z,101257.37
2018-04-12T18:10:40.647Z,101247.54
2018-04-12T18:13:10.082Z,101253.60
2018-04-12T18:15:39.209Z,101269.16
2018-04-12T18:18:08.065Z,101253.93
2018-04-12T18:20:37.453Z,101265.77
2018-04-12T18:23:06.384Z,101255.11
2018-04-12T18:25:35.310Z,101262.81
2018-04-12T18:28:04.197Z,101270.27
2018-04-12T18:30:33.336Z,101263.35
2018-04-12T18:33:02.390Z,101290.53
2018-04-12T18:35:31.279Z,101262.89
2018-04-12T18:38:00.119Z,101295.87
2018-04-12T18:40:28.947Z,101287.00
2018-04-12T18:42:57.798Z,101281.03
2018-04-12T18:45:26.764Z,101290.61
2018-04-12T18:47:55.700Z,101289.34
2018-04-12T18:50:24.666Z,101284.03
2018-04-12T18:52:53.729Z,101284.95
2018-04-12T18:55:22.550Z,101257.58
2018-04-12T18:57:51.645Z,101294.27
2018-04-12T19:00:20.625Z,101270.31
2018-04-12T19:02:49.406Z,101269.05
2018-04-12T19:05:18.210Z,101285.66
2018-04-12T19:07:47.181Z,101290.79
2018-04-12T19:10:16.030Z,101298.16
2018-04-12T19:12:44.936Z,101308.67
2018-04-12T19:15:13.775Z,101302.16
2018-04-12T19:17:42.880Z,101296.38
2018-04-12T19:20:11.906Z,101303.02
2018-04-12T19:22:41.063Z,101308.64
2018-04-12T19:25:09.825Z,101297.19
2018-04-12T19:27:38.688Z,101309.44
2018-04-12T19:30:07.637Z,101281.66
2018-04-12T19:32:36.503Z,101304.63
2018-04-12T19:35:05.490Z,101299.83
2018-04-12T19:37:34.336Z,101312.53
2018-04-12T19:40:03.269Z,101304.38
2018-04-12T19:42:36.288Z,101309.65
2018-04-12T19:45:05.264Z,101307.64
2018-04-12T19:47:34.118Z,101307.21
2018-04-12T19:50:03.297Z,101311.58
2018-04-12T19:52:32.584Z,101310.28
2018-04-12T19:55:01.945Z,101329.80
2018-04-12T19:57:30.754Z,101333.84
2018-04-12T19:59:59.665Z,101336.00
2018-04-12T20:02:28.810Z,101337.06
2018-04-12T20:04:57.713Z,101329.52
2018-04-12T20:07:26.722Z,101333.71
2018-04-12T20:09:55.627Z,101326.34
2018-04-12T20:12:24.575Z,101332.52
2018-04-12T20:14:53.581Z,101320.79
2018-04-12T20:17:22.409Z,101313.62
2018-04-12T20:19:51.565Z,101299.53
2018-04-12T20:22:20.393Z,101299.75
2018-04-12T20:24:49.428Z,101302.81
2018-04-12T20:27:18.401Z,101289.52
2018-04-12T20:29:47.317Z,101304.80
2018-04-12T20:32:16.265Z,101312.02
2018-04-12T20:34:45.219Z,101317.45
2018-04-12T20:37:14.461Z,101307.36
2018-04-12T20:39:43.554Z,101315.09
2018-04-12T20:42:12.740Z,101310.41
2018-04-12T20:44:42.004Z,101316.19
2018-04-12T20:47:10.903Z,101316.17
2018-04-12T20:49:39.717Z,101326.97
2018-04-12T20:52:08.486Z,101335.69
2018-04-12T20:54:37.418Z,101330.67
2018-04-12T20:57:06.276Z,101321.55
2018-04-12T20:59:35.064Z,101317.57
2018-04-12T21:02:03.883Z,101333.44
2018-04-12T21:04:32.747Z,101331.86
2018-04-12T21:07:01.861Z,101324.94
2018-04-12T21:09:30.807Z,101330.38
2018-04-12T21:12:01.516Z,101329.75
2018-04-12T21:14:30.702Z,101341.92
2018-04-12T21:16:59.479Z,101333.52
2018-04-12T21:19:28.387Z,101346.53
2018-04-12T21:21:57.260Z,101342.23
2018-04-12T21:24:26.196Z,101338.70
2018-04-12T21:26:55.120Z,101336.23
2018-04-12T21:29:24.009Z,101341.87
2018-04-12T21:31:52.873Z,101331.27
2018-04-12T21:34:21.845Z,101336.17
2018-04-12T21:36:51.037Z,101335.18
2018-04-12T21:39:20.184Z,101366.07
2018-04-12T21:41:49.066Z,101332.40
2018-04-12T21:44:17.865Z,101314.66
2018-04-12T21:46:46.690Z,101316.07
2018-04-12T21:49:15.467Z,101322.83
2018-04-12T21:51:44.547Z,101312.06
2018-04-12T21:54:13.466Z,101321.93
2018-04-12T21:56:42.372Z,101330.20
2018-04-12T21:59:11.236Z,101323.64
2018-04-12T22:01:40.149Z,101326.66
2018-04-12T22:04:09.312Z,101328.05
2018-04-12T22:06:38.324Z,101329.92
2018-04-12T22:09:07.376Z,101317.70
2018-04-12T22:11:36.443Z,101345.88
2018-04-12T22:14:05.461Z,101349.59
2018-04-12T22:16:34.565Z,101346.52
2018-04-12T22:19:03.537Z,101303.82
2018-04-12T22:21:32.466Z,101338.93
2018-04-12T22:24:01.594Z,101338.03
2018-04-12T22:26:30.695Z,101327.65
2018-04-12T22:28:59.832Z,101334.30
2018-04-12T22:31:28.763Z,101324.06
2018-04-12T22:33:57.770Z,101336.64
2018-04-12T22:36:27.166Z,101344.92
2018-04-12T22:38:56.112Z,101340.34
2018-04-12T22:41:25.054Z,101331.05
2018-04-12T22:43:53.903Z,101342.41
2018-04-12T22:46:22.876Z,101344.45
2018-04-12T22:48:52.073Z,101323.97
2018-04-12T22:51:21.025Z,101328.36
2018-04-12T22:53:50.491Z,101325.16
2018-04-12T22:56:19.650Z,101324.13
2018-04-12T22:58:48.722Z,101320.48
2018-04-12T23:01:19.982Z,101309.40
2018-04-12T23:03:49.127Z,101312.63
2018-04-12T23:06:18.267Z,101331.57
2018-04-12T23:08:47.580Z,101303.88
2018-04-12T23:11:17.097Z,101307.20
2018-04-12T23:13:46.306Z,101308.84
2018-04-12T23:16:15.414Z,101322.25
2018-04-12T23:18:45.561Z,101287.81
2018-04-12T23:21:14.814Z,101296.77
2018-04-12T23:23:44.209Z,101317.52
2018-04-12T23:26:13.463Z,101308.80
2018-04-12T23:28:42.598Z,101317.99
2018-04-12T23:31:11.902Z,101306.12
2018-04-12T23:33:41.240Z,101300.08
2018-04-12T23:36:10.242Z,101306.03
2018-04-12T23:38:39.593Z,101283.86
2018-04-12T23:41:08.791Z,101301.22
2018-04-12T23:43:37.932Z,101292.77
2018-04-12T23:46:07.370Z,101297.50
2018-04-12T23:48:36.525Z,101290.38
2018-04-12T23:51:05.735Z,101296.38
2018-04-12T23:53:34.917Z,101300.56
2018-04-12T23:56:04.364Z,101303.05
2018-04-12T23:58:33.637Z,101292.48
